Rhourd El Adra — 7TBS — position and weather

sailwx.info

Track history (hours):
 
Tides and Currents Weather Stations Pressure Air Temp Water Temp Dewpoint Dewpoint Depression Visibility Wind Speed Wind Dir Waves Ship Positions

Rhourd El Adra

Last reported at 2016-Sep-13 11:33 UTC. Time now 2016-Oct-01 17:13 UTC.
Position N 40°42' E 001°06'.
Warning: this ship's position is 18 days out of date.

Length 156 m; draft 9.1 m.

Type: Ship (hazmat cat C). MMSI: 605026210.

Date/timePositionNaut miles runAvg speedWind from/ knotsBaromVisibWave heightAir tempDewpointWater temp
2016-Sep-13 11:33N 40°42' E 001°06'  
2016-Sep-09 16:25N 41°04' E 001°14'32 1.2
2016-Sep-08 13:33N 40°34' E 001°04'1514.9
2016-Sep-08 12:30N 40°19' E 000°59'1414.7
2016-Sep-08 11:33N 40°05' E 000°55'4714.7
2016-Sep-08 08:22N 39°19' E 000°44'1214.7
2016-Sep-08 07:31N 39°07' E 000°39'6415.2
2016-Sep-08 03:18N 38°04' E 000°23'1114.8
2016-Sep-08 02:33N 37°54' E 000°20'3514.4
2016-Sep-08 00:08N 37°19' E 000°10'814.5
2016-Sep-07 23:33N 37°11' E 000°08'1414.3
2016-Sep-07 22:33N 36°57' E 000°04'1414.1
2016-Sep-07 21:33N 36°44' W 000°00'1614.2
2016-Sep-07 20:27N 36°28' W 000°03'1614.4
2016-Sep-07 19:21N 36°13' W 000°08'1214.6
2016-Sep-07 18:33N 36°01' W 000°11'1211.6
2016-Sep-07 17:32N 35°51' W 000°17'3 0.1
2016-Sep-06 13:32N 35°52' W 000°13'0 0.0
2016-Sep-06 12:32N 35°52' W 000°13'0 0.0
2016-Sep-04 13:29N 35°52' W 000°13'0 0.0
2016-Sep-04 12:32N 35°52' W 000°13'0 0.0
2016-Sep-04 11:26N 35°52' W 000°13'0 0.0
2016-Sep-04 04:05N 35°52' W 000°13'0 0.0
2016-Sep-03 13:08N 35°52' W 000°13'  
Track history (hours):
 
Tides and Currents Weather Stations Pressure Air Temp Water Temp Dewpoint Dewpoint Depression Visibility Wind Speed Wind Dir Waves Ship Positions

Rhourd El Adra

Last reported at 2016-Sep-13 11:33 UTC. Time now 2016-Oct-01 17:13 UTC.
Position N 40°42' E 001°06'.
Warning: this ship's position is 18 days out of date.

Length 156 m; draft 9.1 m.

Type: Ship (hazmat cat C). MMSI: 605026210.

Date/timePositionNaut miles runAvg speedWind from/ knotsBaromVisibWave heightAir tempDewpointWater temp
2016-Sep-13 11:33N 40°42' E 001°06'  
2016-Sep-09 16:25N 41°04' E 001°14'32 1.2
2016-Sep-08 13:33N 40°34' E 001°04'1514.9
2016-Sep-08 12:30N 40°19' E 000°59'1414.7
2016-Sep-08 11:33N 40°05' E 000°55'4714.7
2016-Sep-08 08:22N 39°19' E 000°44'1214.7
2016-Sep-08 07:31N 39°07' E 000°39'6415.2
2016-Sep-08 03:18N 38°04' E 000°23'1114.8
2016-Sep-08 02:33N 37°54' E 000°20'3514.4
2016-Sep-08 00:08N 37°19' E 000°10'814.5
2016-Sep-07 23:33N 37°11' E 000°08'1414.3
2016-Sep-07 22:33N 36°57' E 000°04'1414.1
2016-Sep-07 21:33N 36°44' W 000°00'1614.2
2016-Sep-07 20:27N 36°28' W 000°03'1614.4
2016-Sep-07 19:21N 36°13' W 000°08'1214.6
2016-Sep-07 18:33N 36°01' W 000°11'1211.6
2016-Sep-07 17:32N 35°51' W 000°17'3 0.1
2016-Sep-06 13:32N 35°52' W 000°13'0 0.0
2016-Sep-06 12:32N 35°52' W 000°13'0 0.0
2016-Sep-04 13:29N 35°52' W 000°13'0 0.0
2016-Sep-04 12:32N 35°52' W 000°13'0 0.0
2016-Sep-04 11:26N 35°52' W 000°13'0 0.0
2016-Sep-04 04:05N 35°52' W 000°13'0 0.0
2016-Sep-03 13:08N 35°52' W 000°13'  

Dump ship's entire track history